sensor_id;sensor_type;location;lat;lon;timestamp;P1;durP1;ratioP1;P2;durP2;ratioP2
26516;SDS011;14190;51.342;6.338;2023-07-20T00:00:27;2.02;;;1.10;;
26516;SDS011;14190;51.342;6.338;2023-07-20T00:03:09;1.07;;;1.02;;
26516;SDS011;14190;51.342;6.338;2023-07-20T00:05:24;0.88;;;0.80;;
26516;SDS011;14190;51.342;6.338;2023-07-20T00:07:51;0.93;;;0.65;;
26516;SDS011;14190;51.342;6.338;2023-07-20T00:10:18;2.22;;;1.22;;
26516;SDS011;14190;51.342;6.338;2023-07-20T00:12:46;1.90;;;0.82;;
26516;SDS011;14190;51.342;6.338;2023-07-20T00:15:14;1.37;;;1.27;;
26516;SDS011;14190;51.342;6.338;2023-07-20T00:17:41;2.42;;;1.12;;
26516;SDS011;14190;51.342;6.338;2023-07-20T00:20:08;2.83;;;1.15;;
26516;SDS011;14190;51.342;6.338;2023-07-20T00:22:36;3.37;;;0.57;;
26516;SDS011;14190;51.342;6.338;2023-07-20T00:25:03;4.83;;;2.15;;
26516;SDS011;14190;51.342;6.338;2023-07-20T00:27:31;2.05;;;0.90;;
26516;SDS011;14190;51.342;6.338;2023-07-20T00:29:58;1.77;;;0.90;;
26516;SDS011;14190;51.342;6.338;2023-07-20T00:32:26;1.27;;;0.95;;
26516;SDS011;14190;51.342;6.338;2023-07-20T00:34:53;1.62;;;1.02;;
26516;SDS011;14190;51.342;6.338;2023-07-20T00:37:20;2.40;;;1.87;;
26516;SDS011;14190;51.342;6.338;2023-07-20T00:39:48;3.12;;;2.15;;
26516;SDS011;14190;51.342;6.338;2023-07-20T00:42:15;5.17;;;2.27;;
26516;SDS011;14190;51.342;6.338;2023-07-20T00:44:44;2.95;;;1.55;;
26516;SDS011;14190;51.342;6.338;2023-07-20T00:47:12;2.40;;;1.85;;
26516;SDS011;14190;51.342;6.338;2023-07-20T00:49:39;3.35;;;1.55;;
26516;SDS011;14190;51.342;6.338;2023-07-20T00:52:07;2.67;;;1.37;;
26516;SDS011;14190;51.342;6.338;2023-07-20T00:54:35;5.00;;;2.05;;
26516;SDS011;14190;51.342;6.338;2023-07-20T00:57:04;3.50;;;1.77;;
26516;SDS011;14190;51.342;6.338;2023-07-20T00:59:32;2.33;;;1.85;;
26516;SDS011;14190;51.342;6.338;2023-07-20T01:01:59;2.42;;;1.57;;
26516;SDS011;14190;51.342;6.338;2023-07-20T01:04:26;4.08;;;1.95;;
26516;SDS011;14190;51.342;6.338;2023-07-20T01:07:03;5.72;;;2.62;;
26516;SDS011;14190;51.342;6.338;2023-07-20T01:09:39;5.85;;;2.08;;
26516;SDS011;14190;51.342;6.338;2023-07-20T01:12:06;6.72;;;2.62;;
26516;SDS011;14190;51.342;6.338;2023-07-20T01:14:34;5.20;;;2.50;;
26516;SDS011;14190;51.342;6.338;2023-07-20T01:17:02;6.47;;;2.47;;
26516;SDS011;14190;51.342;6.338;2023-07-20T01:19:29;3.60;;;2.30;;
26516;SDS011;14190;51.342;6.338;2023-07-20T01:22:09;6.50;;;2.02;;
26516;SDS011;14190;51.342;6.338;2023-07-20T01:24:43;3.60;;;1.90;;
26516;SDS011;14190;51.342;6.338;2023-07-20T01:32:32;1.90;;;1.40;;
26516;SDS011;14190;51.342;6.338;2023-07-20T01:34:59;1.27;;;1.15;;
26516;SDS011;14190;51.342;6.338;2023-07-20T01:37:28;2.77;;;1.75;;
26516;SDS011;14190;51.342;6.338;2023-07-20T01:39:58;6.35;;;2.92;;
26516;SDS011;14190;51.342;6.338;2023-07-20T01:42:26;4.62;;;2.62;;
26516;SDS011;14190;51.342;6.338;2023-07-20T01:44:54;3.80;;;2.02;;
26516;SDS011;14190;51.342;6.338;2023-07-20T01:47:23;2.83;;;1.32;;
26516;SDS011;14190;51.342;6.338;2023-07-20T01:49:50;1.50;;;1.00;;
26516;SDS011;14190;51.342;6.338;2023-07-20T01:52:18;2.58;;;1.65;;
26516;SDS011;14190;51.342;6.338;2023-07-20T01:54:45;1.98;;;1.85;;
26516;SDS011;14190;51.342;6.338;2023-07-20T01:57:12;4.67;;;2.12;;
26516;SDS011;14190;51.342;6.338;2023-07-20T01:59:40;1.40;;;1.10;;
26516;SDS011;14190;51.342;6.338;2023-07-20T02:02:07;2.05;;;1.10;;
26516;SDS011;14190;51.342;6.338;2023-07-20T02:04:35;4.60;;;1.57;;
26516;SDS011;14190;51.342;6.338;2023-07-20T02:07:02;2.45;;;1.22;;
26516;SDS011;14190;51.342;6.338;2023-07-20T02:09:30;6.70;;;1.32;;
26516;SDS011;14190;51.342;6.338;2023-07-20T02:11:57;3.90;;;1.20;;
26516;SDS011;14190;51.342;6.338;2023-07-20T02:14:24;3.08;;;1.45;;
26516;SDS011;14190;51.342;6.338;2023-07-20T02:16:52;2.02;;;1.77;;
26516;SDS011;14190;51.342;6.338;2023-07-20T02:19:24;2.37;;;2.17;;
26516;SDS011;14190;51.342;6.338;2023-07-20T02:21:52;1.23;;;0.97;;
26516;SDS011;14190;51.342;6.338;2023-07-20T02:24:20;1.52;;;1.17;;
26516;SDS011;14190;51.342;6.338;2023-07-20T02:26:47;4.78;;;1.40;;
26516;SDS011;14190;51.342;6.338;2023-07-20T02:29:15;2.05;;;1.37;;
26516;SDS011;14190;51.342;6.338;2023-07-20T02:31:42;1.40;;;1.25;;
26516;SDS011;14190;51.342;6.338;2023-07-20T02:34:10;2.02;;;1.42;;
26516;SDS011;14190;51.342;6.338;2023-07-20T02:36:37;2.30;;;1.15;;
26516;SDS011;14190;51.342;6.338;2023-07-20T02:39:05;1.90;;;1.17;;
26516;SDS011;14190;51.342;6.338;2023-07-20T02:41:33;2.15;;;1.37;;
26516;SDS011;14190;51.342;6.338;2023-07-20T02:44:00;1.90;;;0.82;;
26516;SDS011;14190;51.342;6.338;2023-07-20T02:46:29;2.75;;;1.40;;
26516;SDS011;14190;51.342;6.338;2023-07-20T02:48:58;3.70;;;1.27;;
26516;SDS011;14190;51.342;6.338;2023-07-20T02:51:25;1.60;;;1.50;;
26516;SDS011;14190;51.342;6.338;2023-07-20T02:53:52;1.37;;;1.10;;
26516;SDS011;14190;51.342;6.338;2023-07-20T02:56:20;0.68;;;0.68;;
26516;SDS011;14190;51.342;6.338;2023-07-20T02:58:47;2.20;;;1.05;;
26516;SDS011;14190;51.342;6.338;2023-07-20T03:01:14;1.35;;;1.25;;
26516;SDS011;14190;51.342;6.338;2023-07-20T03:03:42;1.12;;;0.70;;
26516;SDS011;14190;51.342;6.338;2023-07-20T03:06:11;0.42;;;0.42;;
26516;SDS011;14190;51.342;6.338;2023-07-20T03:08:38;1.77;;;1.32;;
26516;SDS011;14190;51.342;6.338;2023-07-20T03:11:07;1.10;;;0.75;;
26516;SDS011;14190;51.342;6.338;2023-07-20T03:13:35;1.10;;;1.02;;
26516;SDS011;14190;51.342;6.338;2023-07-20T03:16:02;2.65;;;1.27;;
26516;SDS011;14190;51.342;6.338;2023-07-20T03:18:29;4.70;;;1.60;;
26516;SDS011;14190;51.342;6.338;2023-07-20T03:20:57;9.33;;;2.05;;
26516;SDS011;14190;51.342;6.338;2023-07-20T03:23:24;2.05;;;1.60;;
26516;SDS011;14190;51.342;6.338;2023-07-20T03:25:53;5.28;;;1.50;;
26516;SDS011;14190;51.342;6.338;2023-07-20T03:28:22;2.87;;;1.20;;
26516;SDS011;14190;51.342;6.338;2023-07-20T03:30:58;4.90;;;2.10;;
26516;SDS011;14190;51.342;6.338;2023-07-20T03:33:27;2.98;;;2.05;;
26516;SDS011;14190;51.342;6.338;2023-07-20T03:35:56;7.28;;;3.50;;
26516;SDS011;14190;51.342;6.338;2023-07-20T03:38:24;6.42;;;2.27;;
26516;SDS011;14190;51.342;6.338;2023-07-20T03:40:52;4.92;;;2.27;;
26516;SDS011;14190;51.342;6.338;2023-07-20T03:43:21;6.90;;;2.55;;
26516;SDS011;14190;51.342;6.338;2023-07-20T03:45:49;5.78;;;2.45;;
26516;SDS011;14190;51.342;6.338;2023-07-20T03:48:17;10.55;;;2.95;;
26516;SDS011;14190;51.342;6.338;2023-07-20T03:50:45;3.92;;;2.08;;
26516;SDS011;14190;51.342;6.338;2023-07-20T03:53:13;4.95;;;2.27;;
26516;SDS011;14190;51.342;6.338;2023-07-20T03:55:46;4.10;;;1.80;;
26516;SDS011;14190;51.342;6.338;2023-07-20T03:58:13;9.08;;;2.12;;
26516;SDS011;14190;51.342;6.338;2023-07-20T04:00:46;4.45;;;2.02;;
26516;SDS011;14190;51.342;6.338;2023-07-20T04:03:10;2.17;;;1.85;;
26516;SDS011;14190;51.342;6.338;2023-07-20T04:05:38;4.75;;;1.85;;
26516;SDS011;14190;51.342;6.338;2023-07-20T04:08:05;3.70;;;1.98;;
26516;SDS011;14190;51.342;6.338;2023-07-20T04:10:32;2.95;;;2.27;;
26516;SDS011;14190;51.342;6.338;2023-07-20T04:13:00;3.15;;;1.82;;
26516;SDS011;14190;51.342;6.338;2023-07-20T04:15:27;5.70;;;2.20;;
26516;SDS011;14190;51.342;6.338;2023-07-20T04:17:55;4.22;;;1.67;;
26516;SDS011;14190;51.342;6.338;2023-07-20T04:20:23;4.70;;;2.70;;
26516;SDS011;14190;51.342;6.338;2023-07-20T04:22:50;7.67;;;3.42;;
26516;SDS011;14190;51.342;6.338;2023-07-20T04:25:18;5.03;;;2.83;;
26516;SDS011;14190;51.342;6.338;2023-07-20T04:27:45;7.75;;;3.65;;
26516;SDS011;14190;51.342;6.338;2023-07-20T04:30:16;5.08;;;2.67;;
26516;SDS011;14190;51.342;6.338;2023-07-20T04:32:45;4.50;;;2.37;;
26516;SDS011;14190;51.342;6.338;2023-07-20T04:35:17;10.70;;;3.37;;
26516;SDS011;14190;51.342;6.338;2023-07-20T04:37:46;10.28;;;2.67;;
26516;SDS011;14190;51.342;6.338;2023-07-20T04:40:15;5.42;;;3.08;;
26516;SDS011;14190;51.342;6.338;2023-07-20T04:42:43;5.60;;;3.20;;
26516;SDS011;14190;51.342;6.338;2023-07-20T04:45:10;4.78;;;2.87;;
26516;SDS011;14190;51.342;6.338;2023-07-20T04:47:38;4.33;;;2.95;;
26516;SDS011;14190;51.342;6.338;2023-07-20T04:50:05;6.35;;;2.95;;
26516;SDS011;14190;51.342;6.338;2023-07-20T04:52:33;6.05;;;2.92;;
26516;SDS011;14190;51.342;6.338;2023-07-20T04:55:00;4.45;;;2.45;;
26516;SDS011;14190;51.342;6.338;2023-07-20T04:57:28;3.67;;;3.15;;
26516;SDS011;14190;51.342;6.338;2023-07-20T04:59:55;8.05;;;2.12;;
26516;SDS011;14190;51.342;6.338;2023-07-20T05:02:23;6.53;;;2.65;;
26516;SDS011;14190;51.342;6.338;2023-07-20T05:04:50;5.10;;;2.30;;
26516;SDS011;14190;51.342;6.338;2023-07-20T05:07:18;6.72;;;3.17;;
26516;SDS011;14190;51.342;6.338;2023-07-20T05:09:45;5.80;;;3.05;;
26516;SDS011;14190;51.342;6.338;2023-07-20T05:12:13;6.22;;;3.05;;
26516;SDS011;14190;51.342;6.338;2023-07-20T05:14:40;9.50;;;2.37;;
26516;SDS011;14190;51.342;6.338;2023-07-20T05:17:08;2.65;;;2.00;;
26516;SDS011;14190;51.342;6.338;2023-07-20T05:19:35;4.25;;;2.40;;
26516;SDS011;14190;51.342;6.338;2023-07-20T05:22:03;6.08;;;3.37;;
26516;SDS011;14190;51.342;6.338;2023-07-20T05:24:31;4.70;;;2.83;;
26516;SDS011;14190;51.342;6.338;2023-07-20T05:26:59;6.10;;;2.95;;
26516;SDS011;14190;51.342;6.338;2023-07-20T05:29:26;3.60;;;2.55;;
26516;SDS011;14190;51.342;6.338;2023-07-20T05:31:54;4.67;;;2.80;;
26516;SDS011;14190;51.342;6.338;2023-07-20T05:34:21;7.12;;;3.52;;
26516;SDS011;14190;51.342;6.338;2023-07-20T05:36:48;6.08;;;2.60;;
26516;SDS011;14190;51.342;6.338;2023-07-20T05:39:16;5.05;;;2.85;;
26516;SDS011;14190;51.342;6.338;2023-07-20T05:41:44;5.75;;;2.25;;
26516;SDS011;14190;51.342;6.338;2023-07-20T05:44:12;3.85;;;1.87;;
26516;SDS011;14190;51.342;6.338;2023-07-20T05:46:39;2.98;;;2.08;;
26516;SDS011;14190;51.342;6.338;2023-07-20T05:49:07;2.35;;;1.52;;
26516;SDS011;14190;51.342;6.338;2023-07-20T05:51:35;4.58;;;2.58;;
26516;SDS011;14190;51.342;6.338;2023-07-20T05:54:02;2.95;;;1.70;;
26516;SDS011;14190;51.342;6.338;2023-07-20T05:56:30;3.30;;;1.95;;
26516;SDS011;14190;51.342;6.338;2023-07-20T05:58:57;2.95;;;2.00;;
26516;SDS011;14190;51.342;6.338;2023-07-20T06:01:24;3.25;;;1.77;;
26516;SDS011;14190;51.342;6.338;2023-07-20T06:03:53;7.53;;;2.47;;
26516;SDS011;14190;51.342;6.338;2023-07-20T06:06:21;2.62;;;1.52;;
26516;SDS011;14190;51.342;6.338;2023-07-20T06:08:48;2.80;;;1.95;;
26516;SDS011;14190;51.342;6.338;2023-07-20T06:11:16;2.70;;;1.80;;
26516;SDS011;14190;51.342;6.338;2023-07-20T06:13:43;5.53;;;2.10;;
26516;SDS011;14190;51.342;6.338;2023-07-20T06:16:11;3.10;;;1.87;;
26516;SDS011;14190;51.342;6.338;2023-07-20T06:18:38;5.25;;;2.20;;
26516;SDS011;14190;51.342;6.338;2023-07-20T06:21:05;3.90;;;2.37;;
26516;SDS011;14190;51.342;6.338;2023-07-20T06:23:33;2.83;;;2.15;;
26516;SDS011;14190;51.342;6.338;2023-07-20T06:26:00;2.60;;;1.17;;
26516;SDS011;14190;51.342;6.338;2023-07-20T06:28:28;2.27;;;1.72;;
26516;SDS011;14190;51.342;6.338;2023-07-20T06:31:01;7.60;;;1.25;;
26516;SDS011;14190;51.342;6.338;2023-07-20T06:33:29;1.87;;;1.25;;
26516;SDS011;14190;51.342;6.338;2023-07-20T06:35:57;0.53;;;0.50;;
26516;SDS011;14190;51.342;6.338;2023-07-20T06:38:24;0.60;;;0.60;;
26516;SDS011;14190;51.342;6.338;2023-07-20T06:40:52;0.70;;;0.70;;
26516;SDS011;14190;51.342;6.338;2023-07-20T06:43:19;0.47;;;0.47;;
26516;SDS011;14190;51.342;6.338;2023-07-20T06:45:53;0.40;;;0.37;;
26516;SDS011;14190;51.342;6.338;2023-07-20T06:48:21;0.20;;;0.20;;
26516;SDS011;14190;51.342;6.338;2023-07-20T06:50:48;0.35;;;0.35;;
26516;SDS011;14190;51.342;6.338;2023-07-20T06:53:16;0.57;;;0.40;;
26516;SDS011;14190;51.342;6.338;2023-07-20T06:55:44;0.68;;;0.68;;
26516;SDS011;14190;51.342;6.338;2023-07-20T06:58:11;1.80;;;0.55;;
26516;SDS011;14190;51.342;6.338;2023-07-20T07:00:39;0.82;;;0.82;;
26516;SDS011;14190;51.342;6.338;2023-07-20T07:03:06;2.65;;;0.65;;
26516;SDS011;14190;51.342;6.338;2023-07-20T07:05:36;2.10;;;1.90;;
26516;SDS011;14190;51.342;6.338;2023-07-20T07:08:04;0.82;;;0.82;;
26516;SDS011;14190;51.342;6.338;2023-07-20T07:10:32;1.77;;;1.15;;
26516;SDS011;14190;51.342;6.338;2023-07-20T07:12:59;1.42;;;0.95;;
26516;SDS011;14190;51.342;6.338;2023-07-20T07:15:27;0.75;;;0.75;;
26516;SDS011;14190;51.342;6.338;2023-07-20T07:17:54;0.70;;;0.70;;
26516;SDS011;14190;51.342;6.338;2023-07-20T07:20:23;3.87;;;1.12;;
26516;SDS011;14190;51.342;6.338;2023-07-20T07:22:50;0.50;;;0.50;;
26516;SDS011;14190;51.342;6.338;2023-07-20T07:25:18;0.57;;;0.57;;
26516;SDS011;14190;51.342;6.338;2023-07-20T07:27:46;0.30;;;0.30;;
26516;SDS011;14190;51.342;6.338;2023-07-20T07:30:13;0.42;;;0.42;;
26516;SDS011;14190;51.342;6.338;2023-07-20T07:32:41;0.28;;;0.28;;
26516;SDS011;14190;51.342;6.338;2023-07-20T07:35:08;1.27;;;1.17;;
26516;SDS011;14190;51.342;6.338;2023-07-20T07:37:36;0.75;;;0.47;;
26516;SDS011;14190;51.342;6.338;2023-07-20T07:40:03;1.15;;;0.78;;
26516;SDS011;14190;51.342;6.338;2023-07-20T07:42:32;7.62;;;5.58;;
26516;SDS011;14190;51.342;6.338;2023-07-20T07:44:59;8.20;;;0.55;;
26516;SDS011;14190;51.342;6.338;2023-07-20T07:47:27;2.33;;;0.55;;
26516;SDS011;14190;51.342;6.338;2023-07-20T07:49:54;0.25;;;0.23;;
26516;SDS011;14190;51.342;6.338;2023-07-20T07:52:21;0.20;;;0.20;;
26516;SDS011;14190;51.342;6.338;2023-07-20T07:54:49;0.25;;;0.15;;
26516;SDS011;14190;51.342;6.338;2023-07-20T07:57:16;0.57;;;0.40;;
26516;SDS011;14190;51.342;6.338;2023-07-20T07:59:43;0.23;;;0.23;;
26516;SDS011;14190;51.342;6.338;2023-07-20T08:02:11;0.40;;;0.20;;
26516;SDS011;14190;51.342;6.338;2023-07-20T08:04:38;0.75;;;0.30;;
26516;SDS011;14190;51.342;6.338;2023-07-20T08:07:05;0.40;;;0.28;;
26516;SDS011;14190;51.342;6.338;2023-07-20T08:09:33;0.98;;;0.53;;
26516;SDS011;14190;51.342;6.338;2023-07-20T08:12:00;1.17;;;0.42;;
26516;SDS011;14190;51.342;6.338;2023-07-20T08:14:27;0.60;;;0.60;;
26516;SDS011;14190;51.342;6.338;2023-07-20T08:16:55;0.33;;;0.23;;
26516;SDS011;14190;51.342;6.338;2023-07-20T08:19:22;0.47;;;0.35;;
26516;SDS011;14190;51.342;6.338;2023-07-20T08:21:50;1.30;;;0.62;;
26516;SDS011;14190;51.342;6.338;2023-07-20T08:24:17;0.98;;;0.62;;
26516;SDS011;14190;51.342;6.338;2023-07-20T08:26:45;0.60;;;0.60;;
26516;SDS011;14190;51.342;6.338;2023-07-20T08:29:12;1.30;;;0.33;;
26516;SDS011;14190;51.342;6.338;2023-07-20T08:31:40;0.70;;;0.53;;
26516;SDS011;14190;51.342;6.338;2023-07-20T08:34:07;0.50;;;0.50;;
26516;SDS011;14190;51.342;6.338;2023-07-20T08:36:35;0.20;;;0.20;;
26516;SDS011;14190;51.342;6.338;2023-07-20T08:39:03;0.37;;;0.37;;
26516;SDS011;14190;51.342;6.338;2023-07-20T08:41:30;0.98;;;0.50;;
26516;SDS011;14190;51.342;6.338;2023-07-20T08:43:57;0.78;;;0.60;;
26516;SDS011;14190;51.342;6.338;2023-07-20T08:46:25;0.40;;;0.40;;
26516;SDS011;14190;51.342;6.338;2023-07-20T08:48:54;5.87;;;0.68;;
26516;SDS011;14190;51.342;6.338;2023-07-20T08:51:22;1.30;;;1.20;;
26516;SDS011;14190;51.342;6.338;2023-07-20T08:53:50;0.60;;;0.50;;
26516;SDS011;14190;51.342;6.338;2023-07-20T08:56:18;0.47;;;0.47;;
26516;SDS011;14190;51.342;6.338;2023-07-20T08:58:45;0.62;;;0.35;;
26516;SDS011;14190;51.342;6.338;2023-07-20T09:01:13;1.25;;;0.37;;
26516;SDS011;14190;51.342;6.338;2023-07-20T09:03:42;0.98;;;0.42;;
26516;SDS011;14190;51.342;6.338;2023-07-20T09:06:10;0.42;;;0.42;;
26516;SDS011;14190;51.342;6.338;2023-07-20T09:08:38;2.25;;;0.93;;
26516;SDS011;14190;51.342;6.338;2023-07-20T09:11:06;2.65;;;0.40;;
26516;SDS011;14190;51.342;6.338;2023-07-20T09:13:33;0.98;;;0.93;;
26516;SDS011;14190;51.342;6.338;2023-07-20T09:16:01;0.20;;;0.20;;
26516;SDS011;14190;51.342;6.338;2023-07-20T09:18:30;0.40;;;0.40;;
26516;SDS011;14190;51.342;6.338;2023-07-20T09:20:58;0.30;;;0.30;;
26516;SDS011;14190;51.342;6.338;2023-07-20T09:23:33;1.77;;;0.40;;
26516;SDS011;14190;51.342;6.338;2023-07-20T09:26:04;0.30;;;0.30;;
26516;SDS011;14190;51.342;6.338;2023-07-20T09:28:30;0.30;;;0.30;;
26516;SDS011;14190;51.342;6.338;2023-07-20T09:30:59;0.30;;;0.30;;
26516;SDS011;14190;51.342;6.338;2023-07-20T09:33:28;0.50;;;0.20;;
26516;SDS011;14190;51.342;6.338;2023-07-20T09:36:01;2.42;;;0.57;;
26516;SDS011;14190;51.342;6.338;2023-07-20T09:38:24;0.30;;;0.30;;
26516;SDS011;14190;51.342;6.338;2023-07-20T09:40:53;0.40;;;0.40;;
26516;SDS011;14190;51.342;6.338;2023-07-20T09:43:20;0.20;;;0.20;;
26516;SDS011;14190;51.342;6.338;2023-07-20T09:45:48;0.50;;;0.50;;
26516;SDS011;14190;51.342;6.338;2023-07-20T09:48:15;0.23;;;0.23;;
26516;SDS011;14190;51.342;6.338;2023-07-20T09:50:48;0.45;;;0.20;;
26516;SDS011;14190;51.342;6.338;2023-07-20T09:53:12;0.33;;;0.25;;
26516;SDS011;14190;51.342;6.338;2023-07-20T09:55:41;0.60;;;0.30;;
26516;SDS011;14190;51.342;6.338;2023-07-20T09:58:09;0.20;;;0.20;;
26516;SDS011;14190;51.342;6.338;2023-07-20T10:00:37;0.28;;;0.28;;
26516;SDS011;14190;51.342;6.338;2023-07-20T10:03:05;0.13;;;0.13;;
26516;SDS011;14190;51.342;6.338;2023-07-20T10:05:33;0.20;;;0.20;;
26516;SDS011;14190;51.342;6.338;2023-07-20T10:08:03;0.30;;;0.30;;
26516;SDS011;14190;51.342;6.338;2023-07-20T10:13:00;6.28;;;0.37;;
26516;SDS011;14190;51.342;6.338;2023-07-20T10:15:51;0.20;;;0.20;;
26516;SDS011;14190;51.342;6.338;2023-07-20T10:17:59;0.17;;;0.17;;
26516;SDS011;14190;51.342;6.338;2023-07-20T10:20:27;1.02;;;0.60;;
26516;SDS011;14190;51.342;6.338;2023-07-20T10:22:54;0.53;;;0.40;;
26516;SDS011;14190;51.342;6.338;2023-07-20T10:25:23;0.30;;;0.25;;
26516;SDS011;14190;51.342;6.338;2023-07-20T10:27:50;0.50;;;0.50;;
26516;SDS011;14190;51.342;6.338;2023-07-20T10:30:18;0.45;;;0.20;;
26516;SDS011;14190;51.342;6.338;2023-07-20T10:32:46;1.00;;;0.30;;
26516;SDS011;14190;51.342;6.338;2023-07-20T10:35:15;0.28;;;0.28;;
26516;SDS011;14190;51.342;6.338;2023-07-20T10:37:52;0.15;;;0.15;;
26516;SDS011;14190;51.342;6.338;2023-07-20T10:40:23;0.28;;;0.28;;
26516;SDS011;14190;51.342;6.338;2023-07-20T10:42:51;0.20;;;0.20;;
26516;SDS011;14190;51.342;6.338;2023-07-20T10:45:20;1.25;;;0.20;;
26516;SDS011;14190;51.342;6.338;2023-07-20T10:47:47;1.20;;;0.50;;
26516;SDS011;14190;51.342;6.338;2023-07-20T10:50:14;0.57;;;0.55;;
26516;SDS011;14190;51.342;6.338;2023-07-20T10:52:42;1.05;;;0.40;;
26516;SDS011;14190;51.342;6.338;2023-07-20T10:55:16;0.80;;;0.53;;
26516;SDS011;14190;51.342;6.338;2023-07-20T10:57:43;0.60;;;0.40;;
26516;SDS011;14190;51.342;6.338;2023-07-20T11:00:13;0.20;;;0.20;;
26516;SDS011;14190;51.342;6.338;2023-07-20T11:02:44;0.20;;;0.20;;
26516;SDS011;14190;51.342;6.338;2023-07-20T11:07:57;0.50;;;0.50;;
26516;SDS011;14190;51.342;6.338;2023-07-20T11:10:25;1.15;;;1.15;;
26516;SDS011;14190;51.342;6.338;2023-07-20T11:15:48;0.30;;;0.20;;
26516;SDS011;14190;51.342;6.338;2023-07-20T11:18:16;1.00;;;0.30;;
26516;SDS011;14190;51.342;6.338;2023-07-20T11:20:43;0.20;;;0.20;;
26516;SDS011;14190;51.342;6.338;2023-07-20T11:23:11;2.00;;;0.65;;
26516;SDS011;14190;51.342;6.338;2023-07-20T11:25:48;0.20;;;0.20;;
26516;SDS011;14190;51.342;6.338;2023-07-20T11:28:16;0.13;;;0.13;;
26516;SDS011;14190;51.342;6.338;2023-07-20T11:30:44;0.90;;;0.40;;
26516;SDS011;14190;51.342;6.338;2023-07-20T11:33:11;0.30;;;0.30;;
26516;SDS011;14190;51.342;6.338;2023-07-20T11:35:42;0.10;;;0.10;;
26516;SDS011;14190;51.342;6.338;2023-07-20T11:38:10;0.10;;;0.10;;
26516;SDS011;14190;51.342;6.338;2023-07-20T11:40:41;0.25;;;0.25;;
26516;SDS011;14190;51.342;6.338;2023-07-20T11:43:06;0.10;;;0.10;;
26516;SDS011;14190;51.342;6.338;2023-07-20T11:45:34;0.50;;;0.20;;
26516;SDS011;14190;51.342;6.338;2023-07-20T11:48:01;0.30;;;0.30;;
26516;SDS011;14190;51.342;6.338;2023-07-20T11:50:28;0.17;;;0.17;;
26516;SDS011;14190;51.342;6.338;2023-07-20T11:52:56;0.30;;;0.30;;
26516;SDS011;14190;51.342;6.338;2023-07-20T11:55:24;0.25;;;0.25;;
26516;SDS011;14190;51.342;6.338;2023-07-20T11:58:01;0.23;;;0.23;;
26516;SDS011;14190;51.342;6.338;2023-07-20T12:00:29;0.50;;;0.50;;
26516;SDS011;14190;51.342;6.338;2023-07-20T12:02:56;0.20;;;0.20;;
26516;SDS011;14190;51.342;6.338;2023-07-20T12:05:24;0.70;;;0.42;;
26516;SDS011;14190;51.342;6.338;2023-07-20T12:07:52;0.10;;;0.10;;
26516;SDS011;14190;51.342;6.338;2023-07-20T12:10:26;0.30;;;0.30;;
26516;SDS011;14190;51.342;6.338;2023-07-20T12:12:54;0.10;;;0.10;;
26516;SDS011;14190;51.342;6.338;2023-07-20T12:15:22;0.42;;;0.30;;
26516;SDS011;14190;51.342;6.338;2023-07-20T12:17:51;0.93;;;0.20;;
26516;SDS011;14190;51.342;6.338;2023-07-20T12:20:25;0.30;;;0.30;;
26516;SDS011;14190;51.342;6.338;2023-07-20T12:22:55;0.15;;;0.15;;
26516;SDS011;14190;51.342;6.338;2023-07-20T12:25:22;0.20;;;0.20;;
26516;SDS011;14190;51.342;6.338;2023-07-20T12:27:49;0.23;;;0.23;;
26516;SDS011;14190;51.342;6.338;2023-07-20T12:30:16;0.82;;;0.30;;
26516;SDS011;14190;51.342;6.338;2023-07-20T12:32:44;0.30;;;0.25;;
26516;SDS011;14190;51.342;6.338;2023-07-20T12:35:12;0.20;;;0.20;;
26516;SDS011;14190;51.342;6.338;2023-07-20T12:37:41;0.33;;;0.20;;
26516;SDS011;14190;51.342;6.338;2023-07-20T12:40:08;0.33;;;0.33;;
26516;SDS011;14190;51.342;6.338;2023-07-20T12:42:37;0.57;;;0.20;;
26516;SDS011;14190;51.342;6.338;2023-07-20T12:45:04;0.20;;;0.20;;
26516;SDS011;14190;51.342;6.338;2023-07-20T12:47:32;0.33;;;0.20;;
26516;SDS011;14190;51.342;6.338;2023-07-20T12:49:59;9.50;;;1.10;;
26516;SDS011;14190;51.342;6.338;2023-07-20T12:52:27;0.20;;;0.20;;
26516;SDS011;14190;51.342;6.338;2023-07-20T12:54:54;0.30;;;0.23;;
26516;SDS011;14190;51.342;6.338;2023-07-20T12:57:21;0.23;;;0.23;;
26516;SDS011;14190;51.342;6.338;2023-07-20T12:59:49;0.33;;;0.30;;
26516;SDS011;14190;51.342;6.338;2023-07-20T13:02:16;0.20;;;0.20;;
26516;SDS011;14190;51.342;6.338;2023-07-20T13:04:44;0.23;;;0.23;;
26516;SDS011;14190;51.342;6.338;2023-07-20T13:07:12;0.98;;;0.35;;
26516;SDS011;14190;51.342;6.338;2023-07-20T13:09:39;0.20;;;0.20;;
26516;SDS011;14190;51.342;6.338;2023-07-20T13:12:09;0.20;;;0.20;;
26516;SDS011;14190;51.342;6.338;2023-07-20T13:14:36;0.40;;;0.40;;
26516;SDS011;14190;51.342;6.338;2023-07-20T13:17:03;0.62;;;0.30;;
26516;SDS011;14190;51.342;6.338;2023-07-20T13:19:31;0.23;;;0.23;;
26516;SDS011;14190;51.342;6.338;2023-07-20T13:21:58;0.20;;;0.20;;
26516;SDS011;14190;51.342;6.338;2023-07-20T13:24:25;0.70;;;0.20;;
26516;SDS011;14190;51.342;6.338;2023-07-20T13:26:53;0.30;;;0.30;;
26516;SDS011;14190;51.342;6.338;2023-07-20T13:29:20;1.10;;;0.70;;
26516;SDS011;14190;51.342;6.338;2023-07-20T13:31:47;0.65;;;0.30;;
26516;SDS011;14190;51.342;6.338;2023-07-20T13:34:15;0.10;;;0.10;;
26516;SDS011;14190;51.342;6.338;2023-07-20T13:36:42;0.45;;;0.35;;
26516;SDS011;14190;51.342;6.338;2023-07-20T13:39:10;3.12;;;0.57;;
26516;SDS011;14190;51.342;6.338;2023-07-20T13:41:38;0.10;;;0.10;;
26516;SDS011;14190;51.342;6.338;2023-07-20T13:44:05;0.28;;;0.28;;
26516;SDS011;14190;51.342;6.338;2023-07-20T13:46:32;0.75;;;0.75;;
26516;SDS011;14190;51.342;6.338;2023-07-20T13:49:00;0.42;;;0.37;;
26516;SDS011;14190;51.342;6.338;2023-07-20T13:51:28;0.20;;;0.20;;
26516;SDS011;14190;51.342;6.338;2023-07-20T13:53:55;0.28;;;0.28;;
26516;SDS011;14190;51.342;6.338;2023-07-20T13:56:23;0.20;;;0.20;;
26516;SDS011;14190;51.342;6.338;2023-07-20T13:58:50;0.85;;;0.40;;
26516;SDS011;14190;51.342;6.338;2023-07-20T14:01:18;0.20;;;0.20;;
26516;SDS011;14190;51.342;6.338;2023-07-20T14:03:45;0.37;;;0.20;;
26516;SDS011;14190;51.342;6.338;2023-07-20T14:06:13;0.60;;;0.30;;
26516;SDS011;14190;51.342;6.338;2023-07-20T14:08:40;2.60;;;0.53;;
26516;SDS011;14190;51.342;6.338;2023-07-20T14:11:07;0.60;;;0.33;;
26516;SDS011;14190;51.342;6.338;2023-07-20T14:13:35;0.13;;;0.13;;
26516;SDS011;14190;51.342;6.338;2023-07-20T14:16:02;3.58;;;0.55;;
26516;SDS011;14190;51.342;6.338;2023-07-20T14:18:30;0.57;;;0.57;;
26516;SDS011;14190;51.342;6.338;2023-07-20T14:20:57;0.60;;;0.20;;
26516;SDS011;14190;51.342;6.338;2023-07-20T14:23:25;1.10;;;0.80;;
26516;SDS011;14190;51.342;6.338;2023-07-20T14:25:53;1.17;;;1.17;;
26516;SDS011;14190;51.342;6.338;2023-07-20T14:28:20;1.07;;;0.20;;
26516;SDS011;14190;51.342;6.338;2023-07-20T14:30:47;0.30;;;0.30;;
26516;SDS011;14190;51.342;6.338;2023-07-20T14:33:15;0.30;;;0.30;;
26516;SDS011;14190;51.342;6.338;2023-07-20T14:35:42;0.20;;;0.20;;
26516;SDS011;14190;51.342;6.338;2023-07-20T14:38:10;0.20;;;0.20;;
26516;SDS011;14190;51.342;6.338;2023-07-20T14:40:37;0.98;;;0.50;;
26516;SDS011;14190;51.342;6.338;2023-07-20T14:43:04;0.30;;;0.30;;
26516;SDS011;14190;51.342;6.338;2023-07-20T14:45:32;0.53;;;0.53;;
26516;SDS011;14190;51.342;6.338;2023-07-20T14:47:59;0.40;;;0.40;;
26516;SDS011;14190;51.342;6.338;2023-07-20T14:50:27;0.45;;;0.45;;
26516;SDS011;14190;51.342;6.338;2023-07-20T14:52:54;0.30;;;0.15;;
26516;SDS011;14190;51.342;6.338;2023-07-20T14:55:21;0.13;;;0.13;;
26516;SDS011;14190;51.342;6.338;2023-07-20T14:57:49;0.20;;;0.20;;
26516;SDS011;14190;51.342;6.338;2023-07-20T15:00:17;2.55;;;0.47;;
26516;SDS011;14190;51.342;6.338;2023-07-20T15:02:44;0.33;;;0.30;;
26516;SDS011;14190;51.342;6.338;2023-07-20T15:05:12;0.40;;;0.40;;